Tee Cenac — WDG7996 — position and weather

sailwx.info

Track history (hours):
 
Tides and Currents Weather Stations Pressure Air Temp Water Temp Dewpoint Dewpoint Depression Visibility Wind Speed Wind Dir Waves Ship Positions

Tee Cenac

Owner: Cenac Marine Services, Houma, LA. More information available from US FCC via Universal Licensing System and Coast Guard Vessel Documentation Center.

Last reported at 2018-Jun-19 22:20 UTC. Time now 2018-Jun-20 09:16 UTC.
Position N 29°33' W 090°24'.

Length 22 m; draft 3.2 m.

Type: Tug. MMSI: 367572970.

Date/timePositionNaut miles runAvg speedWind from/ knotsBaromVisibWave heightAir tempDewpointWater temp
2018-Jun-19 22:20N 29°33' W 090°24'2 5.6
2018-Jun-19 21:59N 29°33' W 090°27'3 5.5
2018-Jun-19 21:30N 29°34' W 090°30'3 5.3
2018-Jun-19 21:00N 29°34' W 090°33'3 5.7
2018-Jun-19 20:30N 29°35' W 090°36'3 5.2
2018-Jun-19 20:00N 29°35' W 090°39'3 5.6
2018-Jun-19 19:30N 29°37' W 090°42'2 3.7
2018-Jun-19 19:00N 29°35' W 090°43'2 3.0
2018-Jun-19 18:30N 29°34' W 090°44'0 0.1
2018-Jun-19 18:00N 29°34' W 090°44'0 0.1
2018-Jun-19 17:30N 29°34' W 090°44'2 4.3
2018-Jun-19 17:00N 29°36' W 090°43'1 1.9
2018-Jun-19 16:30N 29°37' W 090°43'0 0.0
2018-Jun-19 16:00N 29°37' W 090°43'0 0.0
2018-Jun-19 15:30N 29°37' W 090°43'2 4.9
2018-Jun-19 15:00N 29°34' W 090°43'1 1.3
2018-Jun-19 14:30N 29°34' W 090°44'0 0.0
2018-Jun-19 14:00N 29°34' W 090°44'2 4.0
2018-Jun-19 13:30N 29°36' W 090°43'2 3.4
2018-Jun-19 13:00N 29°36' W 090°41'3 6.0
2018-Jun-19 12:30N 29°35' W 090°38'3 5.3
2018-Jun-19 12:00N 29°34' W 090°35'3 5.8
2018-Jun-19 11:30N 29°34' W 090°31'  
2018-Jun-12 00:10N 29°33' W 090°26'1 6.8
2018-Jun-12 00:00N 29°33' W 090°27'3 6.8
2018-Jun-11 23:30N 29°34' W 090°31'3 6.4
2018-Jun-11 23:00N 29°34' W 090°34'3 5.3
2018-Jun-11 22:30N 29°35' W 090°37'3 5.8
2018-Jun-11 22:00N 29°36' W 090°40'2 3.9
2018-Jun-11 21:30N 29°37' W 090°43'0 0.3
2018-Jun-11 21:00N 29°37' W 090°43'0 0.0
2018-Jun-11 20:30N 29°37' W 090°43'0 0.0
2018-Jun-11 20:00N 29°37' W 090°43'0 0.0
2018-Jun-11 19:30N 29°37' W 090°43'0 0.0
2018-Jun-11 19:00N 29°37' W 090°43'0 0.3
2018-Jun-11 18:30N 29°37' W 090°43'0 0.0
2018-Jun-11 18:00N 29°37' W 090°43'0 0.0
2018-Jun-11 17:30N 29°37' W 090°43'0 0.5
2018-Jun-11 17:00N 29°37' W 090°42'0 0.0
2018-Jun-11 16:30N 29°37' W 090°42'0 0.0
2018-Jun-11 16:00N 29°37' W 090°42'0 0.0
2018-Jun-11 15:30N 29°37' W 090°42'0 0.0
2018-Jun-11 15:00N 29°37' W 090°42'0 0.0
2018-Jun-11 14:30N 29°37' W 090°42'0 0.0
2018-Jun-11 14:00N 29°37' W 090°42'0 0.0
2018-Jun-11 13:30N 29°37' W 090°42'0 0.0
2018-Jun-11 13:00N 29°37' W 090°42'0 0.0
2018-Jun-11 12:30N 29°37' W 090°42'0 0.0
2018-Jun-11 12:00N 29°37' W 090°42'0 0.0
2018-Jun-11 11:30N 29°37' W 090°42'0 0.0
2018-Jun-11 11:00N 29°37' W 090°42'0 0.0
2018-Jun-11 10:30N 29°37' W 090°42'0 0.0
2018-Jun-11 10:00N 29°37' W 090°42'0 0.0
2018-Jun-11 09:30N 29°37' W 090°42'0 0.0
2018-Jun-11 09:00N 29°37' W 090°42'0 0.0
2018-Jun-11 08:30N 29°37' W 090°42'0 0.0
2018-Jun-11 08:00N 29°37' W 090°42'0 0.0
2018-Jun-11 07:30N 29°37' W 090°42'0 0.0
2018-Jun-11 07:00N 29°37' W 090°42'0 0.0
2018-Jun-11 06:30N 29°37' W 090°42'0 0.0
2018-Jun-11 06:00N 29°37' W 090°42'0 0.0
2018-Jun-11 05:30N 29°37' W 090°42'0 0.0
2018-Jun-11 05:00N 29°37' W 090°42'0 0.0
2018-Jun-11 04:30N 29°37' W 090°42'0 0.0
2018-Jun-11 04:00N 29°37' W 090°42'0 0.0
2018-Jun-11 03:30N 29°37' W 090°42'0 0.0
2018-Jun-11 03:00N 29°37' W 090°42'0 0.0
2018-Jun-11 02:30N 29°37' W 090°42'0 0.0
2018-Jun-11 02:00N 29°37' W 090°42'0 0.0
2018-Jun-11 01:30N 29°37' W 090°42'0 0.0
2018-Jun-11 01:00N 29°37' W 090°42'0 0.0
2018-Jun-11 00:30N 29°37' W 090°42'0 0.0
2018-Jun-11 00:00N 29°37' W 090°42'0 0.0
2018-Jun-10 23:30N 29°37' W 090°42'0 0.0
2018-Jun-10 23:00N 29°37' W 090°42'0 0.0
2018-Jun-10 22:30N 29°37' W 090°42'0 0.0
2018-Jun-10 22:00N 29°37' W 090°42'0 0.0
2018-Jun-10 21:30N 29°37' W 090°42'0 0.0
2018-Jun-10 21:00N 29°37' W 090°42'0 0.0
2018-Jun-10 20:30N 29°37' W 090°42'0 0.0
2018-Jun-10 20:00N 29°37' W 090°42'0 0.0
2018-Jun-10 19:30N 29°37' W 090°42'0 0.0
2018-Jun-10 19:00N 29°37' W 090°42'0 0.0
2018-Jun-10 18:30N 29°37' W 090°42'0 0.0
2018-Jun-10 18:00N 29°37' W 090°42'0 0.0
2018-Jun-10 17:30N 29°37' W 090°42'0 0.0
2018-Jun-10 17:00N 29°37' W 090°42'0 0.0
2018-Jun-10 16:30N 29°37' W 090°42'0 0.0
2018-Jun-10 16:00N 29°37' W 090°42'0 0.0
2018-Jun-10 15:30N 29°37' W 090°42'0 0.0
2018-Jun-10 15:00N 29°37' W 090°42'0 0.0
2018-Jun-10 14:30N 29°37' W 090°42'0 0.0
2018-Jun-10 13:30N 29°37' W 090°42'0 0.0
2018-Jun-10 13:00N 29°37' W 090°42'0 0.0
2018-Jun-10 12:30N 29°37' W 090°42'0 0.0
2018-Jun-10 12:00N 29°37' W 090°42'0 0.0
2018-Jun-10 11:30N 29°37' W 090°42'0 0.0
2018-Jun-10 11:00N 29°37' W 090°42'0 0.0
2018-Jun-10 10:30N 29°37' W 090°42'0 0.0
2018-Jun-10 10:00N 29°37' W 090°42'0 0.0
2018-Jun-10 09:30N 29°37' W 090°42'0 0.0
2018-Jun-10 09:00N 29°37' W 090°42'0 0.0
2018-Jun-10 08:30N 29°37' W 090°42'0 0.0
2018-Jun-10 08:00N 29°37' W 090°42'0 0.0
2018-Jun-10 07:30N 29°37' W 090°42'0 0.0
2018-Jun-10 07:00N 29°37' W 090°42'0 0.0
2018-Jun-10 06:30N 29°37' W 090°42'0 0.0
2018-Jun-10 06:00N 29°37' W 090°42'0 0.0
2018-Jun-10 05:30N 29°37' W 090°42'0 0.0
2018-Jun-10 05:00N 29°37' W 090°42'0 0.0
2018-Jun-10 04:30N 29°37' W 090°42'0 0.0
2018-Jun-10 04:00N 29°37' W 090°42'0 0.0
2018-Jun-10 03:30N 29°37' W 090°42'0 0.0
2018-Jun-10 03:00N 29°37' W 090°42'0 0.0
2018-Jun-10 02:30N 29°37' W 090°42'0 0.0
2018-Jun-10 02:00N 29°37' W 090°42'0 0.0
2018-Jun-10 01:30N 29°37' W 090°42'0 0.0
2018-Jun-10 01:00N 29°37' W 090°42'0 0.0
2018-Jun-10 00:30N 29°37' W 090°42'0 0.0
2018-Jun-10 00:00N 29°37' W 090°42'0 0.0
2018-Jun-09 23:30N 29°37' W 090°42'0 0.0
2018-Jun-09 23:00N 29°37' W 090°42'0 0.0
2018-Jun-09 22:30N 29°37' W 090°42'  
Track history (hours):
 
Tides and Currents Weather Stations Pressure Air Temp Water Temp Dewpoint Dewpoint Depression Visibility Wind Speed Wind Dir Waves Ship Positions

Tee Cenac

Owner: Cenac Marine Services, Houma, LA. More information available from US FCC via Universal Licensing System and Coast Guard Vessel Documentation Center.

Last reported at 2018-Jun-19 22:20 UTC. Time now 2018-Jun-20 09:16 UTC.
Position N 29°33' W 090°24'.

Length 22 m; draft 3.2 m.

Type: Tug. MMSI: 367572970.

Date/timePositionNaut miles runAvg speedWind from/ knotsBaromVisibWave heightAir tempDewpointWater temp
2018-Jun-19 22:20N 29°33' W 090°24'2 5.6
2018-Jun-19 21:59N 29°33' W 090°27'3 5.5
2018-Jun-19 21:30N 29°34' W 090°30'3 5.3
2018-Jun-19 21:00N 29°34' W 090°33'3 5.7
2018-Jun-19 20:30N 29°35' W 090°36'3 5.2
2018-Jun-19 20:00N 29°35' W 090°39'3 5.6
2018-Jun-19 19:30N 29°37' W 090°42'2 3.7
2018-Jun-19 19:00N 29°35' W 090°43'2 3.0
2018-Jun-19 18:30N 29°34' W 090°44'0 0.1
2018-Jun-19 18:00N 29°34' W 090°44'0 0.1
2018-Jun-19 17:30N 29°34' W 090°44'2 4.3
2018-Jun-19 17:00N 29°36' W 090°43'1 1.9
2018-Jun-19 16:30N 29°37' W 090°43'0 0.0
2018-Jun-19 16:00N 29°37' W 090°43'0 0.0
2018-Jun-19 15:30N 29°37' W 090°43'2 4.9
2018-Jun-19 15:00N 29°34' W 090°43'1 1.3
2018-Jun-19 14:30N 29°34' W 090°44'0 0.0
2018-Jun-19 14:00N 29°34' W 090°44'2 4.0
2018-Jun-19 13:30N 29°36' W 090°43'2 3.4
2018-Jun-19 13:00N 29°36' W 090°41'3 6.0
2018-Jun-19 12:30N 29°35' W 090°38'3 5.3
2018-Jun-19 12:00N 29°34' W 090°35'3 5.8
2018-Jun-19 11:30N 29°34' W 090°31'  
2018-Jun-12 00:10N 29°33' W 090°26'1 6.8
2018-Jun-12 00:00N 29°33' W 090°27'3 6.8
2018-Jun-11 23:30N 29°34' W 090°31'3 6.4
2018-Jun-11 23:00N 29°34' W 090°34'3 5.3
2018-Jun-11 22:30N 29°35' W 090°37'3 5.8
2018-Jun-11 22:00N 29°36' W 090°40'2 3.9
2018-Jun-11 21:30N 29°37' W 090°43'0 0.3
2018-Jun-11 21:00N 29°37' W 090°43'0 0.0
2018-Jun-11 20:30N 29°37' W 090°43'0 0.0
2018-Jun-11 20:00N 29°37' W 090°43'0 0.0
2018-Jun-11 19:30N 29°37' W 090°43'0 0.0
2018-Jun-11 19:00N 29°37' W 090°43'0 0.3
2018-Jun-11 18:30N 29°37' W 090°43'0 0.0
2018-Jun-11 18:00N 29°37' W 090°43'0 0.0
2018-Jun-11 17:30N 29°37' W 090°43'0 0.5
2018-Jun-11 17:00N 29°37' W 090°42'0 0.0
2018-Jun-11 16:30N 29°37' W 090°42'0 0.0
2018-Jun-11 16:00N 29°37' W 090°42'0 0.0
2018-Jun-11 15:30N 29°37' W 090°42'0 0.0
2018-Jun-11 15:00N 29°37' W 090°42'0 0.0
2018-Jun-11 14:30N 29°37' W 090°42'0 0.0
2018-Jun-11 14:00N 29°37' W 090°42'0 0.0
2018-Jun-11 13:30N 29°37' W 090°42'0 0.0
2018-Jun-11 13:00N 29°37' W 090°42'0 0.0
2018-Jun-11 12:30N 29°37' W 090°42'0 0.0
2018-Jun-11 12:00N 29°37' W 090°42'0 0.0
2018-Jun-11 11:30N 29°37' W 090°42'0 0.0
2018-Jun-11 11:00N 29°37' W 090°42'0 0.0
2018-Jun-11 10:30N 29°37' W 090°42'0 0.0
2018-Jun-11 10:00N 29°37' W 090°42'0 0.0
2018-Jun-11 09:30N 29°37' W 090°42'0 0.0
2018-Jun-11 09:00N 29°37' W 090°42'0 0.0
2018-Jun-11 08:30N 29°37' W 090°42'0 0.0
2018-Jun-11 08:00N 29°37' W 090°42'0 0.0
2018-Jun-11 07:30N 29°37' W 090°42'0 0.0
2018-Jun-11 07:00N 29°37' W 090°42'0 0.0
2018-Jun-11 06:30N 29°37' W 090°42'0 0.0
2018-Jun-11 06:00N 29°37' W 090°42'0 0.0
2018-Jun-11 05:30N 29°37' W 090°42'0 0.0
2018-Jun-11 05:00N 29°37' W 090°42'0 0.0
2018-Jun-11 04:30N 29°37' W 090°42'0 0.0
2018-Jun-11 04:00N 29°37' W 090°42'0 0.0
2018-Jun-11 03:30N 29°37' W 090°42'0 0.0
2018-Jun-11 03:00N 29°37' W 090°42'0 0.0
2018-Jun-11 02:30N 29°37' W 090°42'0 0.0
2018-Jun-11 02:00N 29°37' W 090°42'0 0.0
2018-Jun-11 01:30N 29°37' W 090°42'0 0.0
2018-Jun-11 01:00N 29°37' W 090°42'0 0.0
2018-Jun-11 00:30N 29°37' W 090°42'0 0.0
2018-Jun-11 00:00N 29°37' W 090°42'0 0.0
2018-Jun-10 23:30N 29°37' W 090°42'0 0.0
2018-Jun-10 23:00N 29°37' W 090°42'0 0.0
2018-Jun-10 22:30N 29°37' W 090°42'0 0.0
2018-Jun-10 22:00N 29°37' W 090°42'0 0.0
2018-Jun-10 21:30N 29°37' W 090°42'0 0.0
2018-Jun-10 21:00N 29°37' W 090°42'0 0.0
2018-Jun-10 20:30N 29°37' W 090°42'0 0.0
2018-Jun-10 20:00N 29°37' W 090°42'0 0.0
2018-Jun-10 19:30N 29°37' W 090°42'0 0.0
2018-Jun-10 19:00N 29°37' W 090°42'0 0.0
2018-Jun-10 18:30N 29°37' W 090°42'0 0.0
2018-Jun-10 18:00N 29°37' W 090°42'0 0.0
2018-Jun-10 17:30N 29°37' W 090°42'0 0.0
2018-Jun-10 17:00N 29°37' W 090°42'0 0.0
2018-Jun-10 16:30N 29°37' W 090°42'0 0.0
2018-Jun-10 16:00N 29°37' W 090°42'0 0.0
2018-Jun-10 15:30N 29°37' W 090°42'0 0.0
2018-Jun-10 15:00N 29°37' W 090°42'0 0.0
2018-Jun-10 14:30N 29°37' W 090°42'0 0.0
2018-Jun-10 13:30N 29°37' W 090°42'0 0.0
2018-Jun-10 13:00N 29°37' W 090°42'0 0.0
2018-Jun-10 12:30N 29°37' W 090°42'0 0.0
2018-Jun-10 12:00N 29°37' W 090°42'0 0.0
2018-Jun-10 11:30N 29°37' W 090°42'0 0.0
2018-Jun-10 11:00N 29°37' W 090°42'0 0.0
2018-Jun-10 10:30N 29°37' W 090°42'0 0.0
2018-Jun-10 10:00N 29°37' W 090°42'0 0.0
2018-Jun-10 09:30N 29°37' W 090°42'0 0.0
2018-Jun-10 09:00N 29°37' W 090°42'0 0.0
2018-Jun-10 08:30N 29°37' W 090°42'0 0.0
2018-Jun-10 08:00N 29°37' W 090°42'0 0.0
2018-Jun-10 07:30N 29°37' W 090°42'0 0.0
2018-Jun-10 07:00N 29°37' W 090°42'0 0.0
2018-Jun-10 06:30N 29°37' W 090°42'0 0.0
2018-Jun-10 06:00N 29°37' W 090°42'0 0.0
2018-Jun-10 05:30N 29°37' W 090°42'0 0.0
2018-Jun-10 05:00N 29°37' W 090°42'0 0.0
2018-Jun-10 04:30N 29°37' W 090°42'0 0.0
2018-Jun-10 04:00N 29°37' W 090°42'0 0.0
2018-Jun-10 03:30N 29°37' W 090°42'0 0.0
2018-Jun-10 03:00N 29°37' W 090°42'0 0.0
2018-Jun-10 02:30N 29°37' W 090°42'0 0.0
2018-Jun-10 02:00N 29°37' W 090°42'0 0.0
2018-Jun-10 01:30N 29°37' W 090°42'0 0.0
2018-Jun-10 01:00N 29°37' W 090°42'0 0.0
2018-Jun-10 00:30N 29°37' W 090°42'0 0.0
2018-Jun-10 00:00N 29°37' W 090°42'0 0.0
2018-Jun-09 23:30N 29°37' W 090°42'0 0.0
2018-Jun-09 23:00N 29°37' W 090°42'0 0.0
2018-Jun-09 22:30N 29°37' W 090°42'  

Dump ship's entire track history